Copiapo, Chile

5:00 AM CLST on December 19, 2014 (GMT -0300)
Desierto de Atacama Airpo | Change Station
CLOSE
Current Station
Airport
Location: Desierto de Atacama Airpo,
Elevation: 689 ft
Nearby Weather Stations

Elev 689 ft 27.26 °S, 70.77 °W | Updated 1 hour ago

Clear
Clear
57 °F
Feels Like 57 °F
N
7
Wind Variable Wind from WSW
Gusts mph

Today
High -- | Low -- °F
--% Chance of Precip.
Yesterday
High -- | Low -- °F
Precip. -- in
6:42 AM 8:34 PM
Waning Crescent, 9% visible
Pressure 30.04 in
Visibility 6.2 miles
Clouds
Dew Point 52 °F
Humidity 82%
Rainfall 0.00 in
Snow Depth Not available.
UV Not available.
Pollen Not available.
Air Quality Not available.
Flu Activity Not available.
METAR SCAT 190700Z AUTO 25006KT 9999 // ///011 14/11 Q1017

More Conditions Fewer Conditions

Pressure 30.04 in
Visibility 6.2 miles
Clouds
Dew Point 52 °F
Humidity 82%
Rainfall 0.00 in
Snow Depth Not available.
UV Not available.
Pollen Not available.
Air Quality Not available.
Flu Activity Not available.
METAR SCAT 190700Z AUTO 25006KT 9999 // ///011 14/11 Q1017

More Conditions Fewer Conditions

10-Day Weather Forecast

Almanac

Astronomy

Dec. 19, 2014 Rise Set
Actual Time
Civil Twilight
Nautical Twilight
Astronomical Twilight
Moon
Length of Visible Light
Length of Day
Tomorrow will be .
, % of the Moon is Illuminated

Today's Extremes

Country Highs Country Lows

Community

WunderPhotos

Upload Photos

1,778,953 photos uploaded!

WunderBlogs® & News

Nearby

Air Quality

  Air Quality AQ Index Pollutant
Not available.

Snow Depth

Station Depth Elevation

Earthquake Activity

City Distance Mag. Time & Date
Minimum magnitude displayed is 2.5.

Coastal Water Temperatures

Place Temperature

Nearby Weather Stations